Time;durP1;ratioP1;P1;durP2;ratioP2;P2;SDS_P1;SDS_P2;PMS_P1;PMS_P2;Temp;Humidity;BMP_temperature;BMP_pressure;BME280_temperature;BME280_humidity;BME280_pressure;Samples;Min_cycle;Max_cycle;Signal;HPM_P1;HPM_P2
2024/01/24 00:00:24;;;;;;;14.73;4.90;;;;;;;3.10;85.80;100866.53;5068685;28;20212;-60
2024/01/24 00:02:52;;;;;;;13.47;5.30;;;;;;;3.09;86.02;100861.38;5065804;28;20202;-60
2024/01/24 00:05:20;;;;;;;12.93;5.23;;;;;;;3.07;85.75;100856.25;5063667;28;20630;-59
2024/01/24 00:07:47;;;;;;;13.23;4.87;;;;;;;3.08;86.04;100868.16;5070305;28;20228;-59
2024/01/24 00:10:15;;;;;;;17.40;5.87;;;;;;;3.05;86.24;100855.31;5069234;28;20232;-60
2024/01/24 00:12:45;;;;;;;17.00;5.07;;;;;;;3.05;85.80;100855.31;5066733;28;20200;-58
2024/01/24 00:15:13;;;;;;;14.03;4.23;;;;;;;3.05;85.80;100857.00;5070446;28;20209;-58
2024/01/24 00:17:41;;;;;;;13.83;5.40;;;;;;;3.06;86.29;100869.81;5064640;28;20220;-58
2024/01/24 00:20:12;;;;;;;13.67;4.30;;;;;;;3.07;85.54;100856.25;5069582;28;20292;-57
2024/01/24 00:22:40;;;;;;;13.60;5.03;;;;;;;3.08;85.58;100857.13;5060475;28;20194;-57
2024/01/24 00:25:09;;;;;;;19.03;5.03;;;;;;;3.07;85.69;100850.31;5056771;28;20210;-58
2024/01/24 00:27:37;;;;;;;9.53;4.40;;;;;;;3.10;85.69;100845.31;5066101;28;20741;-58
2024/01/24 00:30:07;;;;;;;11.87;4.57;;;;;;;3.12;86.03;100852.16;5066755;28;20202;-57
2024/01/24 00:32:35;;;;;;;10.73;5.07;;;;;;;3.14;85.31;100853.09;5066373;28;20300;-58
2024/01/24 00:35:03;;;;;;;14.23;5.20;;;;;;;3.16;84.92;100850.56;5060505;28;20205;-57
2024/01/24 00:37:31;;;;;;;13.60;5.50;;;;;;;3.17;85.37;100848.88;5066790;28;20310;-59
2024/01/24 00:39:59;;;;;;;13.40;5.13;;;;;;;3.18;85.08;100843.84;5069708;28;20209;-57
2024/01/24 00:42:27;;;;;;;13.27;5.53;;;;;;;3.19;84.80;100848.13;5070004;28;20197;-57
2024/01/24 00:44:56;;;;;;;14.70;5.50;;;;;;;3.21;84.75;100843.97;5073892;28;20233;-57
2024/01/24 00:47:25;;;;;;;16.83;6.47;;;;;;;3.22;84.18;100839.72;5073019;28;20297;-59
2024/01/24 00:49:53;;;;;;;14.03;6.03;;;;;;;3.21;84.47;100851.59;5070315;28;20327;-59
2024/01/24 00:52:21;;;;;;;14.53;5.70;;;;;;;3.23;84.24;100857.59;5067750;28;20201;-56
2024/01/24 00:54:49;;;;;;;13.87;5.17;;;;;;;3.25;83.94;100853.44;5062125;28;20579;-56
2024/01/24 00:57:17;;;;;;;14.43;5.27;;;;;;;3.27;84.29;100867.06;5068255;28;20687;-57
2024/01/24 00:59:45;;;;;;;15.47;5.27;;;;;;;3.29;83.71;100857.78;5061610;28;20652;-57
2024/01/24 01:02:13;;;;;;;11.80;5.03;;;;;;;3.30;83.84;100828.09;5073198;28;20243;-57
2024/01/24 01:04:43;;;;;;;13.83;4.93;;;;;;;3.31;84.03;100817.94;5072917;28;20205;-58
2024/01/24 01:07:11;;;;;;;12.03;4.80;;;;;;;3.31;83.73;100802.66;5072612;28;20278;-59
2024/01/24 01:09:39;;;;;;;15.70;5.53;;;;;;;3.32;83.67;100806.94;5067023;28;20631;-58
2024/01/24 01:12:07;;;;;;;16.23;4.63;;;;;;;3.34;83.11;100800.19;5069346;28;20667;-58
2024/01/24 01:14:37;;;;;;;15.87;5.27;;;;;;;3.36;83.52;100792.63;5071290;28;20284;-58
2024/01/24 01:17:05;;;;;;;14.33;5.50;;;;;;;3.38;82.75;100788.41;5066967;28;20700;-59
2024/01/24 01:19:33;;;;;;;16.47;4.60;;;;;;;3.38;82.94;100781.63;5068833;28;20212;-57
2024/01/24 01:22:02;;;;;;;11.23;4.73;;;;;;;3.39;83.23;100773.19;5072927;28;20305;-56
2024/01/24 01:24:30;;;;;;;7.47;4.37;;;;;;;3.39;83.23;100757.91;5073154;28;20201;-57
2024/01/24 01:26:58;;;;;;;15.03;4.93;;;;;;;3.39;82.96;100747.72;5063095;28;20656;-57
2024/01/24 01:29:26;;;;;;;13.73;5.10;;;;;;;3.39;82.15;100735.00;5067361;28;20676;-58
2024/01/24 01:31:54;;;;;;;14.40;4.57;;;;;;;3.37;82.29;100720.47;5063332;28;20614;-58
2024/01/24 01:34:22;;;;;;;13.57;4.40;;;;;;;3.34;82.69;100703.41;5072498;28;20262;-58
2024/01/24 01:36:50;;;;;;;14.00;5.23;;;;;;;3.32;82.38;100699.13;5069973;28;20726;-59
2024/01/24 01:39:19;;;;;;;15.57;5.30;;;;;;;3.29;82.42;100689.69;5070819;28;20194;-58
2024/01/24 01:41:48;;;;;;;10.47;4.63;;;;;;;3.27;83.18;100685.38;5068885;28;20205;-58
2024/01/24 01:44:16;;;;;;;14.43;4.80;;;;;;;3.26;82.96;100691.28;5072596;28;20225;-59
2024/01/24 01:46:45;;;;;;;10.97;4.57;;;;;;;3.23;83.24;100684.41;5067120;28;20241;-57
2024/01/24 01:49:13;;;;;;;11.13;4.13;;;;;;;3.23;83.29;100679.34;5067603;28;20664;-57
2024/01/24 01:51:42;;;;;;;13.47;3.90;;;;;;;3.22;83.13;100686.94;5072416;28;20211;-58
2024/01/24 01:54:10;;;;;;;12.87;5.00;;;;;;;3.20;83.06;100679.25;5072772;28;20201;-58
2024/01/24 01:56:40;;;;;;;12.57;4.13;;;;;;;3.20;82.35;100678.38;5068571;28;20302;-58
2024/01/24 01:59:09;;;;;;;13.67;4.30;;;;;;;3.19;82.70;100676.66;5072173;28;21112;-57
2024/01/24 02:01:38;;;;;;;14.00;4.63;;;;;;;3.20;83.03;100663.09;5072309;28;20206;-57
2024/01/24 02:04:07;;;;;;;14.50;4.90;;;;;;;3.18;83.05;100660.53;5070730;28;20198;-58
2024/01/24 02:06:35;;;;;;;17.20;4.77;;;;;;;3.15;82.93;100651.09;5056080;28;20209;-58
2024/01/24 02:09:08;;;;;;;14.33;4.83;;;;;;;3.15;83.07;100653.66;5058649;28;20679;-59
2024/01/24 02:11:36;;;;;;;7.60;4.33;;;;;;;3.15;82.19;100665.53;5069405;28;20209;-57
2024/01/24 02:14:06;;;;;;;14.17;4.77;;;;;;;3.12;82.98;100656.09;5072455;28;20197;-58
2024/01/24 02:16:34;;;;;;;11.83;4.30;;;;;;;3.13;82.17;100657.00;5071560;28;20570;-57
2024/01/24 02:19:02;;;;;;;12.77;5.30;;;;;;;3.15;82.86;100655.34;5071013;28;20242;-56
2024/01/24 02:21:30;;;;;;;13.00;4.90;;;;;;;3.16;82.71;100646.88;5072179;28;20209;-56
2024/01/24 02:23:59;;;;;;;10.47;4.40;;;;;;;3.16;82.47;100634.13;5065645;28;20290;-58
2024/01/24 02:26:28;;;;;;;7.00;3.83;;;;;;;3.14;82.17;100638.34;5068352;28;20576;-56
2024/01/24 02:28:56;;;;;;;12.53;4.33;;;;;;;3.13;82.31;100619.66;5061686;28;20299;-57
2024/01/24 02:31:24;;;;;;;8.93;4.70;;;;;;;3.11;82.14;100612.78;5062371;28;20202;-58
2024/01/24 02:33:52;;;;;;;14.97;4.50;;;;;;;3.11;82.40;100597.53;5066769;28;20217;-58
2024/01/24 02:36:20;;;;;;;10.80;4.53;;;;;;;3.09;82.04;100594.94;5064751;28;20230;-58
2024/01/24 02:38:48;;;;;;;8.33;3.93;;;;;;;3.04;82.65;100570.16;5062428;28;20700;-58
2024/01/24 02:41:18;;;;;;;13.47;4.53;;;;;;;3.02;82.13;100572.69;5062239;28;20212;-58
2024/01/24 02:43:47;;;;;;;13.30;4.57;;;;;;;3.01;82.41;100568.38;5072023;28;20197;-58
2024/01/24 02:46:15;;;;;;;12.97;4.50;;;;;;;3.03;82.19;100569.31;5071100;28;20204;-58
2024/01/24 02:48:43;;;;;;;11.07;4.47;;;;;;;3.03;82.09;100560.81;5071141;28;20221;-57
2024/01/24 02:51:11;;;;;;;15.57;4.60;;;;;;;3.04;82.50;100560.84;5070070;28;20722;-58
2024/01/24 02:53:39;;;;;;;12.60;4.00;;;;;;;3.06;81.84;100558.34;5070916;28;20252;-57
2024/01/24 02:56:07;;;;;;;11.47;3.80;;;;;;;3.08;82.09;100546.50;5058173;28;20205;-57
2024/01/24 02:58:35;;;;;;;10.77;3.93;;;;;;;3.08;81.10;100536.31;5056941;28;20206;-57
2024/01/24 03:01:05;;;;;;;11.97;3.80;;;;;;;3.08;81.92;100546.50;5059707;28;20599;-57
2024/01/24 03:03:33;;;;;;;13.50;4.87;;;;;;;3.07;82.12;100553.28;5068827;28;20263;-58
2024/01/24 03:06:01;;;;;;;11.23;4.73;;;;;;;3.05;81.68;100526.06;5071466;28;20201;-59
2024/01/24 03:08:29;;;;;;;13.77;3.90;;;;;;;3.05;81.69;100515.88;5070396;28;20204;-57
2024/01/24 03:10:57;;;;;;;9.77;4.23;;;;;;;3.05;81.01;100521.81;5067244;28;20217;-57
2024/01/24 03:13:24;;;;;;;12.13;4.40;;;;;;;3.06;80.85;100507.44;5069023;28;20205;-57
2024/01/24 03:15:52;;;;;;;11.43;4.50;;;;;;;3.04;81.33;100481.06;5066447;28;20232;-58
2024/01/24 03:18:23;;;;;;;12.13;4.10;;;;;;;3.06;81.69;100471.81;5061740;28;20217;-56
2024/01/24 03:20:51;;;;;;;10.37;4.20;;;;;;;3.08;81.15;100462.50;5070217;28;20615;-58
2024/01/24 03:23:20;;;;;;;8.60;4.00;;;;;;;3.06;81.13;100447.19;5071268;28;20613;-57
2024/01/24 03:25:48;;;;;;;10.63;4.10;;;;;;;3.03;80.87;100454.75;5070380;28;20204;-57
2024/01/24 03:28:16;;;;;;;11.77;3.60;;;;;;;3.00;80.18;100444.50;5064724;28;20197;-57
2024/01/24 03:30:44;;;;;;;10.60;4.40;;;;;;;2.94;80.74;100446.88;5063052;28;20288;-58
2024/01/24 03:33:12;;;;;;;12.93;4.43;;;;;;;2.88;80.64;100439.94;5056095;28;20736;-57
2024/01/24 03:35:41;;;;;;;12.47;4.57;;;;;;;2.86;80.44;100440.72;5065666;28;20300;-57
2024/01/24 03:38:09;;;;;;;11.17;4.77;;;;;;;2.86;80.27;100451.75;5058380;28;20595;-56
2024/01/24 03:40:37;;;;;;;9.60;4.37;;;;;;;2.84;80.47;100430.53;5071002;28;20615;-59
2024/01/24 03:43:05;;;;;;;8.07;3.70;;;;;;;2.82;80.53;100447.41;5070522;28;20236;-60
2024/01/24 03:45:35;;;;;;;11.73;4.43;;;;;;;2.84;80.09;100450.03;5070964;28;20291;-57
2024/01/24 03:48:03;;;;;;;14.70;4.07;;;;;;;2.84;80.22;100434.75;5069898;28;20293;-58
2024/01/24 03:50:31;;;;;;;9.33;4.47;;;;;;;2.86;79.42;100428.84;5074925;28;20243;-57
2024/01/24 03:53:01;;;;;;;10.63;4.30;;;;;;;2.86;79.65;100422.91;5063907;28;20200;-58
2024/01/24 03:55:29;;;;;;;10.60;3.80;;;;;;;2.85;79.35;100419.50;5059574;28;20247;-57
2024/01/24 03:57:57;;;;;;;9.17;3.97;;;;;;;2.85;79.87;100403.38;5065616;28;20209;-59
2024/01/24 04:00:25;;;;;;;13.40;4.30;;;;;;;2.85;79.35;100388.97;5070465;28;20205;-57
2024/01/24 04:02:53;;;;;;;11.10;4.40;;;;;;;2.89;79.03;100393.31;5071010;28;20205;-58
2024/01/24 04:05:21;;;;;;;8.73;4.33;;;;;;;2.92;79.02;100394.22;5067842;28;20668;-57
2024/01/24 04:07:49;;;;;;;8.03;4.20;;;;;;;2.93;78.85;100383.22;5068100;28;20197;-56
2024/01/24 04:10:18;;;;;;;9.10;3.50;;;;;;;2.94;78.52;100383.25;5063630;28;20289;-59
2024/01/24 04:12:46;;;;;;;12.20;3.60;;;;;;;2.97;78.14;100367.19;5070592;28;20578;-57
2024/01/24 04:15:14;;;;;;;10.07;3.43;;;;;;;3.00;78.16;100375.75;5073236;28;20302;-58
2024/01/24 04:17:42;;;;;;;11.83;3.60;;;;;;;3.00;78.44;100345.22;5074891;28;20201;-57
2024/01/24 04:20:11;;;;;;;11.37;4.33;;;;;;;3.02;77.55;100335.94;5073587;28;20741;-56
2024/01/24 04:22:39;;;;;;;9.90;3.97;;;;;;;3.04;77.75;100330.88;5073725;28;20211;-58
2024/01/24 04:25:07;;;;;;;12.07;4.70;;;;;;;3.06;77.65;100324.16;5074328;28;20732;-57
2024/01/24 04:27:37;;;;;;;6.03;3.70;;;;;;;3.08;77.86;100314.84;5059901;28;20205;-58
2024/01/24 04:30:06;;;;;;;10.13;4.00;;;;;;;3.11;77.44;100302.19;5072813;28;20241;-60
2024/01/24 04:32:34;;;;;;;8.20;3.50;;;;;;;3.12;76.51;100294.59;5074258;28;20201;-58
2024/01/24 04:35:02;;;;;;;6.87;3.47;;;;;;;3.14;77.47;100285.31;5074225;28;20213;-57
2024/01/24 04:37:30;;;;;;;10.67;3.90;;;;;;;3.15;76.58;100283.63;5074149;28;20201;-57
2024/01/24 04:39:58;;;;;;;8.10;3.63;;;;;;;3.18;76.17;100278.59;5073734;28;20306;-58
2024/01/24 04:42:26;;;;;;;6.33;3.60;;;;;;;3.20;76.57;100276.94;5070768;28;20210;-58
2024/01/24 04:44:55;;;;;;;7.97;3.30;;;;;;;3.21;76.41;100265.09;5069902;28;20202;-57
2024/01/24 04:47:23;;;;;;;7.00;3.53;;;;;;;3.21;75.90;100276.13;5072095;28;20201;-57
2024/01/24 04:49:51;;;;;;;7.03;3.63;;;;;;;3.24;75.83;100268.56;5072474;28;20699;-59
2024/01/24 04:52:19;;;;;;;9.87;3.97;;;;;;;3.23;75.89;100249.00;5074020;28;20540;-57
2024/01/24 04:54:47;;;;;;;9.80;3.83;;;;;;;3.22;75.81;100237.09;5074215;28;20652;-58
2024/01/24 04:57:15;;;;;;;10.13;3.33;;;;;;;3.25;75.47;100229.53;5069961;28;20204;-58
2024/01/24 04:59:43;;;;;;;8.90;4.17;;;;;;;3.27;75.88;100230.41;5073107;28;20296;-56
2024/01/24 05:02:23;;;;;;;6.53;3.53;;;;;;;3.27;75.59;100209.16;5073263;28;20223;-59
2024/01/24 05:04:51;;;;;;;9.93;3.97;;;;;;;3.26;75.62;100199.81;5068386;28;20201;-57
2024/01/24 05:07:19;;;;;;;7.93;3.43;;;;;;;3.26;75.25;100200.69;5073642;28;20212;-57
2024/01/24 05:09:47;;;;;;;10.37;4.13;;;;;;;3.26;75.13;100179.44;5073041;28;20190;-60
2024/01/24 05:12:15;;;;;;;7.03;3.87;;;;;;;3.26;75.27;100185.41;5069292;28;20566;-58
2024/01/24 05:14:43;;;;;;;9.07;3.57;;;;;;;3.28;75.33;100188.84;5061998;28;20206;-58
2024/01/24 05:17:11;;;;;;;6.90;3.33;;;;;;;3.26;75.46;100182.84;5072260;28;20202;-58
2024/01/24 05:19:40;;;;;;;6.47;3.60;;;;;;;3.26;74.83;100180.31;5073431;28;20266;-57
2024/01/24 05:22:09;;;;;;;8.87;3.83;;;;;;;3.25;74.62;100173.50;5064270;28;20205;-57
2024/01/24 05:24:37;;;;;;;7.80;3.20;;;;;;;3.28;74.71;100167.63;5072585;28;20209;-56
2024/01/24 05:27:05;;;;;;;8.90;4.17;;;;;;;3.27;74.43;100161.66;5071114;28;20667;-58
2024/01/24 05:29:33;;;;;;;11.47;4.23;;;;;;;3.26;74.50;100146.34;5067136;28;20194;-59
2024/01/24 05:32:01;;;;;;;6.93;3.17;;;;;;;3.25;73.77;100142.94;5061392;28;20232;-57
2024/01/24 05:34:29;;;;;;;9.77;3.83;;;;;;;3.25;74.19;100134.47;5073061;28;20251;-59
2024/01/24 05:36:59;;;;;;;10.47;3.70;;;;;;;3.26;74.36;100126.84;5067085;28;20304;-57
2024/01/24 05:39:27;;;;;;;10.50;4.13;;;;;;;3.25;74.21;100122.59;5065993;28;20634;-57
2024/01/24 05:41:55;;;;;;;6.87;3.60;;;;;;;3.28;74.35;100129.44;5065216;28;20201;-58
2024/01/24 05:44:23;;;;;;;11.33;3.90;;;;;;;3.27;73.85;100100.53;5066988;28;20202;-56
2024/01/24 05:46:51;;;;;;;10.73;3.53;;;;;;;3.28;74.29;100081.91;5070615;28;20233;-58
2024/01/24 05:49:19;;;;;;;9.90;3.80;;;;;;;3.29;74.44;100075.97;5073284;28;20696;-57
2024/01/24 05:51:47;;;;;;;10.07;4.23;;;;;;;3.31;74.31;100069.19;5072764;28;20216;-59
2024/01/24 05:54:17;;;;;;;12.23;4.67;;;;;;;3.35;74.52;100050.63;5063587;28;20248;-61
2024/01/24 05:56:45;;;;;;;10.87;4.57;;;;;;;3.35;74.17;100040.44;5073061;28;20614;-56
2024/01/24 05:59:13;;;;;;;9.43;3.90;;;;;;;3.35;74.19;100048.06;5073067;28;20299;-61
2024/01/24 06:01:43;;;;;;;9.17;4.00;;;;;;;3.32;73.89;100042.94;5068753;28;20649;-58
2024/01/24 06:04:11;;;;;;;10.50;4.47;;;;;;;3.33;73.54;100047.19;5062220;28;20216;-58
2024/01/24 06:06:39;;;;;;;14.87;4.70;;;;;;;3.32;74.09;100053.13;5067520;28;20198;-59
2024/01/24 06:09:08;;;;;;;9.60;4.50;;;;;;;3.32;73.90;100053.13;5070762;28;20720;-61
2024/01/24 06:11:38;;;;;;;9.17;4.43;;;;;;;3.31;74.08;100050.53;5067519;28;20296;-56
2024/01/24 06:14:06;;;;;;;10.70;4.80;;;;;;;3.30;73.94;100029.28;5070647;28;20201;-59
2024/01/24 06:16:34;;;;;;;9.77;4.80;;;;;;;3.34;74.26;100040.41;5065207;28;20206;-57
2024/01/24 06:19:01;;;;;;;9.27;4.77;;;;;;;3.32;74.88;100030.19;5067981;28;20703;-57
2024/01/24 06:21:29;;;;;;;10.57;4.60;;;;;;;3.30;75.56;100011.47;5056977;28;20268;-60
2024/01/24 06:23:57;;;;;;;11.57;4.60;;;;;;;3.24;77.02;100021.56;5071311;28;20211;-58
2024/01/24 06:26:25;;;;;;;14.10;6.20;;;;;;;3.17;78.73;100023.94;5063685;28;20197;-57
2024/01/24 06:28:55;;;;;;;12.60;4.73;;;;;;;3.09;80.05;100023.81;5067566;28;20210;-57
2024/01/24 06:31:24;;;;;;;10.90;4.83;;;;;;;2.97;80.47;100001.53;5070215;28;20620;-58
2024/01/24 06:33:52;;;;;;;9.87;4.40;;;;;;;2.88;81.44;99997.16;5067552;28;20201;-57
2024/01/24 06:36:20;;;;;;;9.70;4.77;;;;;;;2.78;83.17;99992.72;5069488;28;20662;-57
2024/01/24 06:38:48;;;;;;;11.67;5.43;;;;;;;2.69;84.52;99996.75;5071433;28;20292;-58
2024/01/24 06:41:16;;;;;;;9.03;4.57;;;;;;;2.57;85.25;99998.25;5071688;28;20584;-57
2024/01/24 06:43:44;;;;;;;21.93;5.73;;;;;;;2.47;86.60;99982.75;5067258;28;20212;-55
2024/01/24 06:46:13;;;;;;;13.70;5.67;;;;;;;2.38;87.36;99963.97;5070559;28;20678;-59
2024/01/24 06:48:42;;;;;;;14.67;5.33;;;;;;;2.30;87.66;99962.09;5071364;28;20197;-57
2024/01/24 06:51:12;;;;;;;11.20;5.00;;;;;;;2.21;89.02;99965.31;5070447;28;20232;-59
2024/01/24 06:53:40;;;;;;;9.60;5.10;;;;;;;2.10;90.44;99948.97;5067402;28;20219;-56
2024/01/24 06:56:08;;;;;;;10.70;5.13;;;;;;;2.03;90.37;99945.47;5070119;28;20676;-57
2024/01/24 06:58:37;;;;;;;17.27;6.30;;;;;;;1.97;91.59;99922.44;5071368;28;20209;-58
2024/01/24 07:01:05;;;;;;;13.50;5.57;;;;;;;1.96;91.71;99902.09;5070470;28;20308;-57
2024/01/24 07:03:35;;;;;;;10.27;5.37;;;;;;;1.91;91.58;99876.56;5065573;28;20274;-57
2024/01/24 07:06:05;;;;;;;9.87;4.50;;;;;;;1.89;93.16;99863.84;5061025;28;20638;-57
2024/01/24 07:08:34;;;;;;;15.50;5.83;;;;;;;1.89;93.25;99835.91;5061487;28;20213;-57
2024/01/24 07:11:05;;;;;;;16.33;7.20;;;;;;;1.90;93.61;99830.00;5068731;28;20201;-57
2024/01/24 07:13:33;;;;;;;10.43;5.07;;;;;;;1.92;94.28;99810.56;5071370;28;20205;-56
2024/01/24 07:16:04;;;;;;;13.10;5.87;;;;;;;1.98;93.60;99801.34;5069370;28;20201;-59
2024/01/24 07:18:32;;;;;;;12.00;5.43;;;;;;;2.01;94.32;99787.00;5067993;28;20205;-57
2024/01/24 07:21:02;;;;;;;11.57;5.40;;;;;;;2.06;94.32;99787.09;5059327;28;20584;-57
2024/01/24 07:23:30;;;;;;;14.93;5.00;;;;;;;2.08;94.23;99762.56;5068801;28;20201;-57
2024/01/24 07:25:57;;;;;;;11.10;4.93;;;;;;;2.11;94.04;99753.31;5064534;28;20233;-56
2024/01/24 07:28:29;;;;;;;8.83;5.00;;;;;;;2.16;94.62;99749.16;5065152;28;20209;-57
2024/01/24 07:30:57;;;;;;;11.67;5.27;;;;;;;2.20;94.76;99737.38;5066201;28;20205;-57
2024/01/24 07:33:26;;;;;;;11.77;5.20;;;;;;;2.22;94.65;99735.72;5071042;28;20205;-57
2024/01/24 07:35:54;;;;;;;16.57;5.33;;;;;;;2.26;95.15;99741.72;5068655;28;20699;-57
2024/01/24 07:38:23;;;;;;;13.27;5.20;;;;;;;2.25;94.21;99723.06;5071232;28;20224;-55
2024/01/24 07:40:51;;;;;;;10.10;4.33;;;;;;;2.27;94.78;99721.38;5071015;28;20219;-56
2024/01/24 07:43:21;;;;;;;13.57;4.73;;;;;;;2.30;95.10;99718.91;5076649;28;20206;-54
2024/01/24 07:45:49;;;;;;;11.43;5.17;;;;;;;2.29;95.00;99703.63;5057982;28;20279;-56
2024/01/24 07:48:17;;;;;;;9.67;4.73;;;;;;;2.30;95.75;99688.41;5072397;28;20207;-55
2024/01/24 07:50:46;;;;;;;14.47;5.30;;;;;;;2.32;95.47;99703.66;5070764;28;20272;-56
2024/01/24 07:53:14;;;;;;;7.27;4.10;;;;;;;2.32;96.54;99683.31;5067856;28;20209;-55
2024/01/24 07:55:43;;;;;;;5.47;4.10;;;;;;;2.31;96.05;99667.22;5058536;28;20233;-56
2024/01/24 07:58:25;;;;;;;10.60;4.17;;;;;;;2.33;97.36;99672.34;5070448;28;20207;-56
2024/01/24 08:00:55;;;;;;;13.83;5.70;;;;;;;2.33;97.56;99645.25;5066733;28;20224;-57
2024/01/24 08:03:23;;;;;;;9.43;4.33;;;;;;;2.35;97.68;99635.94;5069311;28;20274;-59
2024/01/24 08:05:51;;;;;;;7.37;3.73;;;;;;;2.38;97.68;99628.34;5057319;28;20205;-60
2024/01/24 08:08:19;;;;;;;7.13;4.40;;;;;;;2.39;98.04;99606.31;5069656;28;20680;-57
2024/01/24 08:10:49;;;;;;;13.07;5.13;;;;;;;2.40;98.43;99598.72;5056689;28;20205;-59
2024/01/24 08:13:17;;;;;;;7.90;4.40;;;;;;;2.39;98.91;99599.56;5059276;28;20557;-58
2024/01/24 08:15:46;;;;;;;11.57;4.77;;;;;;;2.41;98.89;99585.19;5069508;28;20639;-59
2024/01/24 08:18:15;;;;;;;7.80;4.10;;;;;;;2.43;98.97;99592.84;5066617;28;20262;-59
2024/01/24 08:20:43;;;;;;;9.97;4.40;;;;;;;2.44;99.82;99578.44;5061288;28;20240;-58
2024/01/24 08:23:11;;;;;;;8.17;3.97;;;;;;;2.46;99.79;99592.00;5067092;28;20616;-57
2024/01/24 08:25:39;;;;;;;10.60;4.20;;;;;;;2.45;99.63;99587.78;5067062;28;20290;-55
2024/01/24 08:28:09;;;;;;;8.40;4.43;;;;;;;2.44;100.00;99550.47;5064244;28;20626;-55
2024/01/24 08:30:37;;;;;;;8.27;4.50;;;;;;;2.46;100.00;99582.69;5067408;28;20246;-59
2024/01/24 08:33:05;;;;;;;9.43;5.20;;;;;;;2.49;100.00;99569.19;5061417;28;20216;-54
2024/01/24 08:35:35;;;;;;;9.77;4.97;;;;;;;2.48;100.00;99547.13;5070488;28;20645;-57
2024/01/24 08:38:04;;;;;;;6.50;4.37;;;;;;;2.47;100.00;99547.94;5061862;28;20202;-55
2024/01/24 08:40:32;;;;;;;7.77;4.03;;;;;;;2.46;100.00;99552.19;5066930;28;20735;-56
2024/01/24 08:43:00;;;;;;;8.47;4.83;;;;;;;2.48;100.00;99537.81;5062711;28;20214;-57
2024/01/24 08:45:30;;;;;;;7.83;4.47;;;;;;;2.49;100.00;99520.88;5065094;28;20725;-58
2024/01/24 08:47:58;;;;;;;8.30;4.23;;;;;;;2.51;100.00;99530.22;5060540;28;20205;-58
2024/01/24 08:50:26;;;;;;;9.27;4.50;;;;;;;2.53;100.00;99522.59;5066703;28;20615;-58
2024/01/24 08:52:54;;;;;;;9.17;4.70;;;;;;;2.52;100.00;99531.06;5065357;28;20293;-58
2024/01/24 08:55:22;;;;;;;7.27;4.20;;;;;;;2.53;100.00;99502.25;5066222;28;20204;-58
2024/01/24 08:57:50;;;;;;;7.93;4.80;;;;;;;2.54;100.00;99509.94;5066426;28;20213;-57
2024/01/24 09:00:18;;;;;;;11.17;5.60;;;;;;;2.59;100.00;99494.72;5061639;28;20229;-56
2024/01/24 09:02:48;;;;;;;6.33;4.23;;;;;;;2.60;100.00;99494.72;5069864;28;20279;-57
2024/01/24 09:05:18;;;;;;;8.33;4.67;;;;;;;2.63;100.00;99499.00;5060349;28;20726;-58
2024/01/24 09:07:46;;;;;;;7.63;4.03;;;;;;;2.64;100.00;99500.69;5064643;28;20669;-57
2024/01/24 09:10:15;;;;;;;8.77;4.50;;;;;;;2.66;100.00;99506.66;5073980;28;20209;-58
2024/01/24 09:12:43;;;;;;;7.40;4.60;;;;;;;2.67;100.00;99493.09;5062995;28;20194;-54
2024/01/24 09:15:11;;;;;;;6.83;4.37;;;;;;;2.65;100.00;99487.13;5067138;28;20213;-55
2024/01/24 09:17:39;;;;;;;6.47;4.30;;;;;;;2.70;100.00;99484.66;5063824;28;20239;-55
2024/01/24 09:20:10;;;;;;;8.03;4.50;;;;;;;2.71;100.00;99471.94;5073191;28;20688;-56
2024/01/24 09:22:38;;;;;;;8.27;3.73;;;;;;;2.74;100.00;99474.53;5071752;28;20221;-54
2024/01/24 09:25:07;;;;;;;7.57;4.33;;;;;;;2.77;100.00;99474.56;5072242;28;20292;-53
2024/01/24 09:27:40;;;;;;;5.03;3.97;;;;;;;2.79;100.00;99469.50;5058935;28;20286;-53
2024/01/24 09:30:09;;;;;;;6.27;4.17;;;;;;;2.79;100.00;99457.63;5063480;28;20296;-56
2024/01/24 09:32:38;;;;;;;5.40;3.37;;;;;;;2.84;100.00;99450.91;5067093;28;20198;-55
2024/01/24 09:35:06;;;;;;;6.40;3.63;;;;;;;2.84;100.00;99422.06;5068309;28;20263;-54
2024/01/24 09:37:36;;;;;;;7.50;4.47;;;;;;;2.87;100.00;99433.13;5061922;28;20251;-52
2024/01/24 09:40:05;;;;;;;9.20;4.40;;;;;;;2.92;100.00;99427.22;5071424;28;20660;-55
2024/01/24 09:42:38;;;;;;;6.60;4.40;;;;;;;2.94;100.00;99423.84;5061420;28;20791;-53
2024/01/24 09:45:09;;;;;;;6.53;3.90;;;;;;;2.99;100.00;99398.44;5064360;28;20202;-55
2024/01/24 09:47:38;;;;;;;6.27;4.23;;;;;;;3.02;100.00;99401.00;5066481;28;20205;-54
2024/01/24 09:50:07;;;;;;;7.77;4.60;;;;;;;3.07;100.00;99399.38;5070550;28;20241;-56
2024/01/24 09:52:39;;;;;;;6.10;3.50;;;;;;;3.11;100.00;99381.56;5066029;28;20220;-57
2024/01/24 09:55:13;;;;;;;4.87;3.70;;;;;;;3.18;100.00;99402.00;5054102;28;20206;-54
2024/01/24 09:57:42;;;;;;;5.03;3.77;;;;;;;3.21;100.00;99400.31;5064006;28;21260;-57
2024/01/24 10:00:14;;;;;;;5.47;3.23;;;;;;;3.28;100.00;99407.19;5069844;28;20205;-56
2024/01/24 10:02:45;;;;;;;5.03;3.67;;;;;;;3.34;100.00;99373.25;5071144;28;20267;-57
2024/01/24 10:05:16;;;;;;;5.20;3.20;;;;;;;3.37;100.00;99394.50;5064513;28;20198;-56
2024/01/24 10:07:46;;;;;;;4.33;2.97;;;;;;;3.44;100.00;99389.44;5070086;28;20217;-56
2024/01/24 10:10:15;;;;;;;5.90;3.60;;;;;;;3.48;100.00;99384.38;5069955;28;20198;-56
2024/01/24 10:12:43;;;;;;;5.47;3.70;;;;;;;3.54;100.00;99375.94;5069277;28;20747;-52
2024/01/24 10:15:12;;;;;;;4.17;2.97;;;;;;;3.59;100.00;99380.19;5070561;28;20651;-55
2024/01/24 10:17:41;;;;;;;7.77;4.23;;;;;;;3.64;100.00;99367.47;5068127;28;20279;-53
2024/01/24 10:20:11;;;;;;;4.57;3.10;;;;;;;3.70;100.00;99376.88;5071555;28;20615;-57
2024/01/24 10:22:40;;;;;;;3.20;2.90;;;;;;;3.78;100.00;99368.41;5071006;28;20548;-55
2024/01/24 10:25:10;;;;;;;3.53;3.13;;;;;;;3.82;100.00;99347.19;5070929;28;20216;-57
2024/01/24 10:27:39;;;;;;;3.57;3.00;;;;;;;3.86;100.00;99355.69;5066951;28;20247;-56
2024/01/24 10:30:11;;;;;;;4.00;3.27;;;;;;;3.91;100.00;99345.56;5070350;28;20201;-54
2024/01/24 10:32:42;;;;;;;5.83;2.73;;;;;;;3.99;100.00;99346.44;5070614;28;20197;-56
2024/01/24 10:35:10;;;;;;;3.70;3.30;;;;;;;4.06;100.00;99326.06;5065590;28;20235;-56
2024/01/24 10:37:41;;;;;;;6.43;3.90;;;;;;;4.10;100.00;99334.56;5067035;28;20649;-56
2024/01/24 10:40:16;;;;;;;5.33;3.47;;;;;;;4.15;100.00;99315.03;5068956;28;20197;-57
2024/01/24 10:42:46;;;;;;;5.80;4.20;;;;;;;4.21;100.00;99317.59;5068951;28;20267;-56
2024/01/24 10:45:17;;;;;;;5.30;4.23;;;;;;;4.28;100.00;99306.56;5060423;28;20205;-57
2024/01/24 10:47:47;;;;;;;5.70;5.07;;;;;;;4.32;100.00;99305.72;5068111;28;20213;-56
2024/01/24 10:50:15;;;;;;;7.57;5.40;;;;;;;4.35;100.00;99281.94;5069285;28;20641;-56
2024/01/24 10:52:44;;;;;;;6.13;4.67;;;;;;;4.42;100.00;99309.16;5064208;28;20275;-57
2024/01/24 10:55:14;;;;;;;6.37;5.00;;;;;;;4.45;100.00;99283.63;5062806;28;20536;-55
2024/01/24 10:57:44;;;;;;;7.23;5.17;;;;;;;4.52;100.00;99285.31;5064571;28;20251;-57
2024/01/24 11:00:16;;;;;;;6.33;5.00;;;;;;;4.59;100.00;99268.31;5060857;28;20209;-57
2024/01/24 11:02:44;;;;;;;11.37;8.77;;;;;;;4.64;100.00;99269.19;5063321;28;20213;-52
2024/01/24 11:05:18;;;;;;;6.10;5.40;;;;;;;4.67;100.00;99264.06;5069902;28;20236;-57
2024/01/24 11:07:55;;;;;;;5.93;5.33;;;;;;;4.70;100.00;99274.28;5064879;28;20201;-57
2024/01/24 11:10:29;;;;;;;7.13;5.67;;;;;;;4.74;100.00;99264.91;5061909;28;20217;-56
2024/01/24 11:12:56;;;;;;;6.97;5.50;;;;;;;4.76;100.00;99278.53;5066644;28;20623;-55
2024/01/24 11:15:28;;;;;;;8.30;5.93;;;;;;;4.77;100.00;99272.56;5063299;28;20212;-56
2024/01/24 11:18:31;;;;;;;6.80;5.53;;;;;;;4.81;100.00;99256.41;5064690;28;20498;-57
2024/01/24 11:21:00;;;;;;;7.57;6.00;;;;;;;4.90;100.00;99261.53;5017996;28;20395;-57
2024/01/24 11:23:43;;;;;;;7.27;6.07;;;;;;;4.95;100.00;99264.91;5060898;28;20594;-58
2024/01/24 11:26:13;;;;;;;7.63;5.13;;;;;;;4.98;100.00;99257.25;5060141;28;20289;-57
2024/01/24 11:28:41;;;;;;;6.07;5.07;;;;;;;5.04;100.00;99258.91;5070474;28;20684;-57
2024/01/24 11:31:10;;;;;;;6.50;5.00;;;;;;;5.06;100.00;99270.00;5066462;28;20202;-57
2024/01/24 11:34:07;;;;;;;6.87;4.63;;;;;;;5.09;100.00;99252.13;5069956;28;20580;-57
2024/01/24 11:36:41;;;;;;;6.37;4.50;;;;;;;5.15;100.00;99252.09;5074965;28;20201;-58
2024/01/24 11:39:32;;;;;;;5.30;4.73;;;;;;;5.22;100.00;99243.56;5070098;28;20212;-56